Time;durP1;ratioP1;P1;durP2;ratioP2;P2;SDS_P1;SDS_P2;PMS_P1;PMS_P2;Temp;Humidity;BMP_temperature;BMP_pressure;BME280_temperature;BME280_humidity;BME280_pressure;Samples;Min_cycle;Max_cycle;Signal;HPM_P1;HPM_P2
2023/01/09 00:01:11;;;;;;;122.55;75.05;;;;;;;-1.57;100.00;101573.13;5069343;28;20053;-81
2023/01/09 00:04:07;;;;;;;119.43;80.90;;;;;;;-1.42;100.00;101566.84;5068250;28;20136;-81
2023/01/09 00:06:38;;;;;;;119.60;75.72;;;;;;;-1.54;100.00;101562.50;5069442;28;20108;-80
2023/01/09 00:09:14;;;;;;;120.72;80.25;;;;;;;-1.13;100.00;101570.94;5068989;28;20106;-81
2023/01/09 00:11:54;;;;;;;135.45;75.05;;;;;;;-1.24;100.00;101569.94;5069168;28;20086;-81
2023/01/09 00:14:22;;;;;;;133.65;75.60;;;;;;;-1.23;100.00;101562.94;5069155;28;20520;-81
2023/01/09 00:16:56;;;;;;;137.00;74.70;;;;;;;-1.19;100.00;101566.97;5067542;28;20052;-81
2023/01/09 00:19:23;;;;;;;126.10;71.47;;;;;;;-1.12;100.00;101564.78;5058351;28;20110;-80
2023/01/09 00:22:02;;;;;;;142.27;72.63;;;;;;;-1.14;100.00;101567.50;5062699;28;20069;-81
2023/01/09 00:25:10;;;;;;;185.18;97.05;;;;;;;-1.45;100.00;101561.03;5068909;28;20040;-80
2023/01/09 00:27:46;;;;;;;235.30;108.22;;;;;;;-1.62;100.00;101567.38;5048866;28;20053;-81
2023/01/09 00:30:31;;;;;;;255.45;126.45;;;;;;;-1.48;100.00;101563.84;5067576;28;20412;-81
2023/01/09 00:33:19;;;;;;;244.50;119.13;;;;;;;-1.81;100.00;101565.22;5068475;28;20098;-81
2023/01/09 00:35:48;;;;;;;221.15;119.70;;;;;;;-1.79;100.00;101568.53;5049054;28;20045;-81
2023/01/09 00:38:43;;;;;;;216.10;111.95;;;;;;;-1.45;100.00;101580.09;5048729;28;20045;-81
2023/01/09 00:41:52;;;;;;;234.90;127.05;;;;;;;-1.24;100.00;101575.16;5049316;28;20091;-81
2023/01/09 00:44:46;;;;;;;198.57;106.78;;;;;;;-1.47;100.00;101568.09;5048788;28;20041;-82
2023/01/09 00:47:30;;;;;;;178.95;101.07;;;;;;;-1.31;100.00;101570.47;5048765;28;20053;-81
2023/01/09 00:50:26;;;;;;;181.07;93.43;;;;;;;-1.35;100.00;101564.63;5048709;28;20060;-81
2023/01/09 00:53:09;;;;;;;170.93;94.85;;;;;;;-1.25;100.00;101554.38;5058395;28;20055;-80
2023/01/09 00:58:57;;;;;;;175.20;90.93;;;;;;;-1.18;100.00;101558.22;5048415;28;20082;-80
2023/01/09 01:01:50;;;;;;;196.02;104.60;;;;;;;-1.08;100.00;101561.84;5038252;28;20496;-80
2023/01/09 01:07:43;;;;;;;206.57;108.28;;;;;;;-1.18;100.00;101550.38;5054915;28;20052;-80
2023/01/09 01:12:50;;;;;;;164.07;93.50;;;;;;;-1.07;100.00;101547.84;5050536;28;20402;-82
2023/01/09 01:15:18;;;;;;;140.27;83.18;;;;;;;-1.31;100.00;101542.63;5046091;28;20503;-82
2023/01/09 01:17:45;;;;;;;165.45;97.22;;;;;;;-1.22;100.00;101536.75;5036748;28;20112;-82
2023/01/09 01:20:15;;;;;;;146.05;95.82;;;;;;;-1.23;100.00;101529.88;5044885;28;20053;-82
2023/01/09 01:22:42;;;;;;;161.63;92.85;;;;;;;-1.01;100.00;101521.34;5044561;28;20096;-82
2023/01/09 01:25:09;;;;;;;150.50;87.50;;;;;;;-1.13;100.00;101530.03;5040574;28;20517;-82
2023/01/09 01:27:36;;;;;;;166.23;90.70;;;;;;;-1.22;100.00;101518.50;5050886;28;20088;-82
2023/01/09 01:30:06;;;;;;;165.70;95.22;;;;;;;-1.27;100.00;101509.34;5035560;28;20088;-82
2023/01/09 01:32:33;;;;;;;180.57;89.15;;;;;;;-1.36;100.00;101515.22;5040411;28;20053;-82
2023/01/09 01:48:25;;;;;;;135.05;81.75;;;;;;;-1.02;100.00;101488.38;5119463;27;20796;-82
2023/01/09 01:50:58;;;;;;;132.63;86.10;;;;;;;-1.27;100.00;101491.94;5123176;27;20485;-82
2023/01/09 01:53:28;;;;;;;137.20;78.70;;;;;;;-1.23;100.00;101497.78;5121960;28;20120;-82
2023/01/09 01:56:05;;;;;;;122.97;80.38;;;;;;;-1.26;100.00;101482.34;5121355;28;20052;-82
2023/01/09 01:58:34;;;;;;;144.38;83.63;;;;;;;-1.25;100.00;101494.44;5100336;28;20051;-82
2023/01/09 02:01:02;;;;;;;133.52;80.85;;;;;;;-1.12;100.00;101499.59;5120256;28;20108;-82
2023/01/09 02:03:30;;;;;;;127.18;84.05;;;;;;;-1.21;100.00;101493.25;5118051;28;20048;-82
2023/01/09 02:05:57;;;;;;;146.15;86.68;;;;;;;-1.31;100.00;101479.22;5117623;28;20043;-82
2023/01/09 02:08:24;;;;;;;127.07;79.15;;;;;;;-1.49;100.00;101490.03;5119207;28;20051;-82
2023/01/09 02:10:52;;;;;;;137.13;93.85;;;;;;;-1.88;100.00;101480.63;5118403;27;20044;-82
2023/01/09 02:13:19;;;;;;;115.47;84.40;;;;;;;-1.74;100.00;101464.88;5123811;27;20466;-82
2023/01/09 02:16:03;;;;;;;126.50;79.18;;;;;;;-1.28;100.00;101463.38;5119897;27;20047;-82
2023/01/09 02:18:40;;;;;;;109.93;75.88;;;;;;;-1.27;100.00;101467.63;5115864;28;20080;-82
2023/01/09 02:21:15;;;;;;;109.80;73.70;;;;;;;-1.24;100.00;101465.66;5118648;28;20489;-82
2023/01/09 02:24:14;;;;;;;113.60;71.03;;;;;;;-1.47;100.00;101456.88;5118282;28;20564;-82
2023/01/09 02:27:04;;;;;;;112.53;71.03;;;;;;;-1.48;100.00;101450.00;5103483;28;20516;-82
2023/01/09 02:30:13;;;;;;;119.03;76.30;;;;;;;-1.46;100.00;101448.09;5113676;27;20047;-82
2023/01/09 02:33:06;;;;;;;128.55;80.60;;;;;;;-1.56;100.00;101441.91;5112305;28;20505;-82
2023/01/09 02:35:47;;;;;;;152.93;92.75;;;;;;;-1.82;100.00;101441.13;5088691;27;20052;-82
2023/01/09 02:38:23;;;;;;;135.82;80.05;;;;;;;-1.82;100.00;101433.31;5121373;27;20043;-82
2023/01/09 02:40:58;;;;;;;144.38;88.78;;;;;;;-1.74;100.00;101438.00;5115916;28;20048;-82
2023/01/09 02:43:26;;;;;;;137.60;83.38;;;;;;;-1.90;100.00;101435.66;5112764;27;20035;-82
2023/01/09 02:45:53;;;;;;;131.20;87.65;;;;;;;-1.71;100.00;101448.19;5114382;28;20055;-82
2023/01/09 02:48:21;;;;;;;126.25;91.97;;;;;;;-1.77;100.00;101443.44;5118085;27;20108;-82
2023/01/09 02:50:58;;;;;;;126.63;86.10;;;;;;;-1.85;100.00;101433.53;5117233;27;20048;-82
2023/01/09 02:53:47;;;;;;;105.50;72.10;;;;;;;-2.08;100.00;101425.56;5117658;27;20061;-82
2023/01/09 02:56:27;;;;;;;112.78;80.70;;;;;;;-2.15;100.00;101428.69;5113479;28;20087;-82
2023/01/09 02:59:12;;;;;;;120.32;80.80;;;;;;;-2.32;100.00;101427.25;5102684;28;20048;-82
2023/01/09 03:01:48;;;;;;;96.95;66.28;;;;;;;-2.01;100.00;101431.19;5098844;22;20048;-80
2023/01/09 03:04:39;;;;;;;99.25;68.90;;;;;;;-1.95;100.00;101414.31;5095203;28;20098;-80
2023/01/09 03:07:15;;;;;;;126.07;68.63;;;;;;;-2.06;100.00;101425.44;5094993;28;20549;-79
2023/01/09 03:10:20;;;;;;;124.40;65.30;;;;;;;-1.98;100.00;101425.75;5104203;28;20046;-80
2023/01/09 03:12:58;;;;;;;102.25;62.25;;;;;;;-2.02;100.00;101433.91;5115455;28;20047;-79
2023/01/09 03:16:10;;;;;;;95.93;59.65;;;;;;;-1.90;100.00;101427.84;5115129;28;20116;-79
2023/01/09 03:18:39;;;;;;;106.15;57.40;;;;;;;-2.14;100.00;101430.38;5111990;28;20040;-80
2023/01/09 03:21:20;;;;;;;104.05;61.78;;;;;;;-2.15;100.00;101432.16;5094741;28;20044;-79
2023/01/09 03:26:40;;;;;;;133.05;88.72;;;;;;;-1.86;100.00;101432.72;5089899;27;20777;-80
2023/01/09 03:29:48;;;;;;;108.13;63.63;;;;;;;-1.89;100.00;101437.31;5089794;28;20463;-80
2023/01/09 03:32:29;;;;;;;95.75;59.97;;;;;;;-2.00;100.00;101437.22;5089882;28;20113;-80
2023/01/09 03:38:17;;;;;;;104.68;59.83;;;;;;;-2.10;100.00;101427.44;5069134;28;20043;-80
2023/01/09 03:40:55;;;;;;;113.30;60.97;;;;;;;-1.91;100.00;101428.75;5078281;28;20113;-80
2023/01/09 03:43:23;;;;;;;109.70;71.65;;;;;;;-2.18;100.00;101432.38;5089354;28;20098;-80
2023/01/09 03:49:12;;;;;;;106.35;72.25;;;;;;;-2.03;100.00;101438.25;5089127;28;20027;-80
2023/01/09 03:55:01;;;;;;;127.40;75.10;;;;;;;-2.19;100.00;101440.25;5078213;28;20031;-80
2023/01/09 03:57:57;;;;;;;120.57;72.93;;;;;;;-2.33;100.00;101436.00;5089423;28;20118;-80
2023/01/09 04:00:57;;;;;;;111.10;72.05;;;;;;;-2.21;100.00;101443.00;5089472;28;20059;-80
2023/01/09 04:03:58;;;;;;;103.57;67.97;;;;;;;-2.18;100.00;101444.53;5088986;28;20055;-79
2023/01/09 04:06:35;;;;;;;113.72;71.22;;;;;;;-1.97;100.00;101431.78;5068306;28;20048;-80
2023/01/09 04:09:09;;;;;;;109.53;67.10;;;;;;;-2.23;100.00;101451.84;5068684;28;20056;-79
2023/01/09 04:14:57;;;;;;;156.00;97.65;;;;;;;-2.34;100.00;101452.56;5068558;28;20527;-79
2023/01/09 04:17:26;;;;;;;110.90;68.72;;;;;;;-2.09;100.00;101449.09;5068675;28;20056;-79
2023/01/09 04:20:01;;;;;;;111.47;65.13;;;;;;;-1.97;100.00;101443.03;5082223;28;20048;-79
2023/01/09 04:22:58;;;;;;;109.57;64.55;;;;;;;-2.07;100.00;101452.44;5088864;28;20491;-79
2023/01/09 04:25:25;;;;;;;127.25;62.05;;;;;;;-2.15;100.00;101450.38;5088093;28;20162;-80
2023/01/09 04:31:52;;;;;;;104.28;65.05;;;;;;;-2.16;100.00;101453.06;5088465;28;20127;-79
2023/01/09 04:34:45;;;;;;;112.53;66.28;;;;;;;-1.96;100.00;101451.69;5088753;28;20048;-79
2023/01/09 04:37:41;;;;;;;115.95;69.68;;;;;;;-2.12;100.00;101447.56;5069739;28;20056;-79
2023/01/09 04:40:14;;;;;;;150.07;87.65;;;;;;;-2.18;100.00;101466.19;5074556;28;20052;-79
2023/01/09 04:42:54;;;;;;;133.90;81.88;;;;;;;-1.92;100.00;101469.59;5075018;28;20567;-79
2023/01/09 04:45:21;;;;;;;123.95;80.13;;;;;;;-2.15;100.00;101460.78;5054693;28;20432;-80
2023/01/09 04:48:23;;;;;;;128.23;79.00;;;;;;;-1.95;100.00;101471.59;5061956;28;20056;-79
2023/01/09 04:51:04;;;;;;;137.70;92.30;;;;;;;-1.88;100.00;101480.63;5074459;28;20408;-79
2023/01/09 04:53:57;;;;;;;186.95;110.85;;;;;;;-2.10;100.00;101483.88;5074118;28;20051;-79
2023/01/09 04:56:57;;;;;;;127.13;87.35;;;;;;;-2.14;100.00;101487.63;5054793;28;20060;-80
2023/01/09 04:59:27;;;;;;;133.43;88.00;;;;;;;-2.00;100.00;101481.47;5066701;28;20057;-81
2023/01/09 05:02:13;;;;;;;128.68;94.10;;;;;;;-2.13;100.00;101478.88;5058813;28;20103;-80
2023/01/09 05:04:56;;;;;;;142.10;97.55;;;;;;;-2.22;100.00;101482.94;5054626;28;20500;-81
2023/01/09 05:07:31;;;;;;;122.25;66.07;;;;;;;-2.14;100.00;101485.03;5056670;28;20052;-80
2023/01/09 05:10:01;;;;;;;118.57;68.30;;;;;;;-2.06;100.00;101469.72;5062946;28;20475;-80
2023/01/09 05:13:08;;;;;;;128.00;68.35;;;;;;;-1.99;100.00;101478.78;5065865;28;20496;-80
2023/01/09 05:19:35;;;;;;;115.28;68.10;;;;;;;-1.88;100.00;101471.03;5072061;28;20511;-80
2023/01/09 05:22:02;;;;;;;130.02;73.30;;;;;;;-1.96;100.00;101478.56;5072455;28;20048;-80
2023/01/09 05:24:36;;;;;;;118.43;71.03;;;;;;;-1.85;100.00;101470.00;5070705;28;20064;-80
2023/01/09 05:29:25;;;;;;;108.00;67.43;;;;;;;-1.81;100.00;101473.25;5089821;27;20387;-82
2023/01/09 05:31:52;;;;;;;117.75;68.65;;;;;;;-1.93;100.00;101461.91;5088247;28;20044;-82
2023/01/09 05:34:19;;;;;;;116.43;66.28;;;;;;;-1.96;100.00;101454.31;5089851;28;20048;-82
2023/01/09 05:36:45;;;;;;;156.02;69.72;;;;;;;-2.19;100.00;101469.72;5089083;28;20048;-82
2023/01/09 05:39:12;;;;;;;116.10;67.50;;;;;;;-1.90;100.00;101461.69;5089649;28;20094;-82
2023/01/09 05:41:39;;;;;;;141.93;68.80;;;;;;;-1.89;100.00;101465.94;5090929;28;20044;-82
2023/01/09 05:44:06;;;;;;;131.95;71.22;;;;;;;-1.86;100.00;101458.75;5088056;28;20074;-82
2023/01/09 05:46:34;;;;;;;127.63;66.60;;;;;;;-1.97;100.00;101468.25;5088918;28;20040;-82
2023/01/09 05:49:00;;;;;;;116.68;64.38;;;;;;;-2.03;100.00;101466.88;5092014;28;20044;-83
2023/01/09 05:51:29;;;;;;;112.18;69.43;;;;;;;-1.88;100.00;101465.00;5087232;28;20470;-82
2023/01/09 05:53:56;;;;;;;118.88;77.15;;;;;;;-2.02;100.00;101458.16;5087914;28;20052;-82
2023/01/09 05:56:23;;;;;;;117.10;71.13;;;;;;;-2.00;100.00;101463.25;5076786;28;20044;-82
2023/01/09 05:58:50;;;;;;;120.97;73.55;;;;;;;-2.05;100.00;101466.19;5087686;28;20078;-82
2023/01/09 06:01:16;;;;;;;132.05;75.72;;;;;;;-1.97;100.00;101453.44;5086860;28;20048;-82
2023/01/09 06:03:44;;;;;;;123.18;72.25;;;;;;;-1.92;100.00;101453.16;5079047;28;21486;-82
2023/01/09 06:06:11;;;;;;;109.60;66.55;;;;;;;-1.78;100.00;101460.00;5083808;28;20048;-82
2023/01/09 06:08:38;;;;;;;111.15;61.88;;;;;;;-1.80;100.00;101447.06;5079802;28;20049;-82
2023/01/09 06:11:05;;;;;;;101.75;61.50;;;;;;;-1.77;100.00;101452.06;5079256;28;20139;-82
2023/01/09 06:13:31;;;;;;;122.45;65.40;;;;;;;-1.93;100.00;101452.31;5088980;28;20048;-83
2023/01/09 06:15:58;;;;;;;135.30;71.70;;;;;;;-1.76;100.00;101452.91;5080601;28;20048;-82
2023/01/09 06:18:25;;;;;;;140.63;70.47;;;;;;;-2.08;100.00;101455.97;5073989;28;20052;-82
2023/01/09 06:20:53;;;;;;;111.80;64.18;;;;;;;-1.90;100.00;101451.28;5076730;28;20036;-82
2023/01/09 06:25:59;;;;;;;117.85;67.47;;;;;;;-2.05;100.00;101436.72;5126879;27;20383;-81
2023/01/09 06:28:35;;;;;;;144.10;82.78;;;;;;;-1.91;100.00;101432.19;5121827;28;20109;-81
2023/01/09 06:34:25;;;;;;;125.60;71.60;;;;;;;-1.99;100.00;101447.53;5103047;28;20048;-81
2023/01/09 06:37:03;;;;;;;130.13;74.85;;;;;;;-1.66;100.00;101443.50;5101753;28;20055;-81
2023/01/09 06:39:59;;;;;;;127.50;68.57;;;;;;;-1.94;100.00;101448.03;5097250;28;20055;-81
2023/01/09 06:42:59;;;;;;;120.72;68.85;;;;;;;-1.94;100.00;101437.59;5110006;28;20047;-81
2023/01/09 06:45:26;;;;;;;118.38;71.95;;;;;;;-1.99;100.00;101442.31;5126296;28;20108;-81
2023/01/09 06:51:15;;;;;;;126.78;78.43;;;;;;;-1.83;100.00;101441.25;5089482;28;20051;-81
2023/01/09 06:53:54;;;;;;;134.73;84.03;;;;;;;-1.80;100.00;101439.25;5110160;28;20040;-81
2023/01/09 06:56:20;;;;;;;126.95;72.95;;;;;;;-1.78;100.00;101432.19;5108693;28;20044;-80
2023/01/09 06:58:49;;;;;;;118.32;75.28;;;;;;;-1.80;100.00;101441.03;5039129;22;20067;-82
2023/01/09 07:01:15;;;;;;;140.63;68.85;;;;;;;-1.49;100.00;101453.53;4987292;28;20438;-82
2023/01/09 07:03:42;;;;;;;101.65;61.72;;;;;;;-1.73;100.00;101439.66;4983727;28;20076;-82
2023/01/09 07:06:09;;;;;;;100.60;60.13;;;;;;;-1.61;100.00;101444.00;4990851;28;20042;-82
2023/01/09 07:08:36;;;;;;;108.68;59.83;;;;;;;-1.76;100.00;101451.13;4985278;28;20049;-82
2023/01/09 07:11:03;;;;;;;98.20;65.00;;;;;;;-2.00;100.00;101453.66;4982914;28;20042;-82
2023/01/09 07:13:29;;;;;;;99.95;64.22;;;;;;;-1.61;100.00;101444.00;4949546;28;20392;-82
2023/01/09 07:15:57;;;;;;;91.30;57.90;;;;;;;-1.46;100.00;101450.72;4983561;28;20105;-82
2023/01/09 07:18:24;;;;;;;104.65;56.15;;;;;;;-1.41;100.00;101451.22;4989971;28;20133;-82
2023/01/09 07:20:51;;;;;;;121.20;69.07;;;;;;;-1.48;100.00;101447.41;4989912;28;20058;-82
2023/01/09 07:23:18;;;;;;;88.80;53.00;;;;;;;-1.76;100.00;101424.25;4990191;28;20046;-82
2023/01/09 07:25:45;;;;;;;101.50;58.15;;;;;;;-1.65;100.00;101429.53;4989014;28;20058;-82
2023/01/09 07:28:11;;;;;;;109.80;61.75;;;;;;;-1.55;100.00;101433.13;4984868;28;20516;-82
2023/01/09 07:30:38;;;;;;;93.55;51.58;;;;;;;-1.67;100.00;101427.03;4988458;28;20113;-82
2023/01/09 07:33:06;;;;;;;93.78;57.03;;;;;;;-1.78;100.00;101423.53;4989968;28;20046;-82
2023/01/09 07:35:33;;;;;;;91.57;54.53;;;;;;;-1.67;100.00;101423.59;4976880;28;20500;-82
2023/01/09 07:38:00;;;;;;;81.65;53.50;;;;;;;-1.63;100.00;101419.84;4975358;28;20078;-82
2023/01/09 07:40:26;;;;;;;106.38;60.20;;;;;;;-1.70;100.00;101403.78;4963444;28;20055;-82
2023/01/09 07:42:53;;;;;;;91.50;53.53;;;;;;;-1.31;100.00;101422.72;4973405;28;20483;-82
2023/01/09 07:45:20;;;;;;;124.22;68.70;;;;;;;-1.47;100.00;101415.19;4976861;28;20066;-82
2023/01/09 07:47:47;;;;;;;94.15;52.33;;;;;;;-1.54;100.00;101407.91;4972997;28;20051;-82
2023/01/09 07:50:15;;;;;;;82.25;48.70;;;;;;;-1.58;100.00;101409.91;4970294;28;20053;-82
2023/01/09 07:52:44;;;;;;;80.80;50.00;;;;;;;-1.53;100.00;101402.59;4971244;28;20062;-82
2023/01/09 07:55:11;;;;;;;91.28;48.47;;;;;;;-1.36;100.00;101404.00;4973439;28;20054;-82
2023/01/09 07:57:38;;;;;;;93.00;47.10;;;;;;;-1.27;100.00;101392.91;4974880;28;20062;-82
2023/01/09 08:00:09;;;;;;;93.82;54.13;;;;;;;-1.06;100.00;101402.66;4975318;28;20067;-82
2023/01/09 08:02:36;;;;;;;108.75;62.58;;;;;;;-1.14;100.00;101392.00;4974171;28;20093;-82
2023/01/09 08:05:04;;;;;;;101.85;59.22;;;;;;;-1.09;100.00;101388.09;4968300;28;20465;-82
2023/01/09 08:07:32;;;;;;;96.13;56.80;;;;;;;-1.20;100.00;101395.88;4972008;28;20051;-82
2023/01/09 08:09:58;;;;;;;95.47;59.10;;;;;;;-1.12;100.00;101390.94;4968375;28;20047;-82
2023/01/09 08:12:26;;;;;;;73.22;48.78;;;;;;;-1.24;100.00;101376.19;4969902;28;20109;-82
2023/01/09 08:14:52;;;;;;;83.38;51.50;;;;;;;-1.26;100.00;101384.13;4973669;28;20500;-82
2023/01/09 08:17:22;;;;;;;87.80;51.38;;;;;;;-1.32;100.00;101374.16;4975518;28;20050;-82
2023/01/09 08:19:51;;;;;;;83.47;49.90;;;;;;;-1.27;100.00;101392.03;4975556;28;20157;-82
2023/01/09 08:22:19;;;;;;;84.68;52.17;;;;;;;-0.90;100.00;101398.00;4974689;28;20058;-82
2023/01/09 08:24:54;;;;;;;73.50;50.55;;;;;;;-1.02;100.00;101388.47;4975997;28;20055;-82
2023/01/09 08:27:23;;;;;;;79.68;53.35;;;;;;;-1.32;100.00;101395.00;4976324;28;20046;-82
2023/01/09 08:29:50;;;;;;;74.97;50.80;;;;;;;-1.00;100.00;101392.63;4975278;28;20047;-82
2023/01/09 08:32:16;;;;;;;74.85;51.30;;;;;;;-1.20;100.00;101393.28;4973799;28;20042;-82
2023/01/09 08:34:43;;;;;;;66.85;50.22;;;;;;;-1.02;100.00;101402.34;4974076;28;20456;-82
2023/01/09 08:37:10;;;;;;;63.53;48.15;;;;;;;-0.78;100.00;101406.69;4972811;28;20125;-82
2023/01/09 08:39:37;;;;;;;78.95;49.70;;;;;;;-1.36;100.00;101400.53;4969291;28;20050;-82
2023/01/09 08:47:33;;;;;;;110.78;59.33;;;;;;;-0.72;100.00;101399.22;4963714;28;20108;-82
2023/01/09 08:50:01;;;;;;;156.02;72.53;;;;;;;-0.73;100.00;101389.72;4970456;28;20061;-82
2023/01/09 08:52:29;;;;;;;99.03;54.72;;;;;;;-0.60;100.00;101380.97;4964571;28;20456;-82
2023/01/09 08:54:56;;;;;;;161.40;76.72;;;;;;;-0.26;100.00;101360.91;4970832;28;20631;-82
2023/01/09 08:57:25;;;;;;;141.40;69.00;;;;;;;-0.36;100.00;101360.81;4977139;28;20050;-82
2023/01/09 08:59:51;;;;;;;90.60;54.25;;;;;;;-0.18;100.00;101365.53;4973900;28;20065;-82
2023/01/09 09:02:18;;;;;;;93.10;51.17;;;;;;;-0.09;100.00;101364.81;4973744;28;20054;-82
2023/01/09 09:04:46;;;;;;;86.25;50.53;;;;;;;-0.04;100.00;101353.03;4968440;28;20047;-82
2023/01/09 09:07:13;;;;;;;83.18;54.38;;;;;;;-0.38;100.00;101346.22;4976417;28;20142;-82
2023/01/09 09:09:40;;;;;;;72.90;53.03;;;;;;;-0.13;100.00;101340.72;4972883;28;20046;-82
2023/01/09 09:12:07;;;;;;;75.78;53.58;;;;;;;0.31;100.00;101331.13;4972397;28;20050;-83
2023/01/09 09:17:20;;;;;;;70.93;53.03;;;;;;;0.31;100.00;101325.06;4974784;28;20093;-82
2023/01/09 09:19:47;;;;;;;57.88;51.58;;;;;;;0.96;100.00;101318.78;4975018;28;20046;-82
2023/01/09 09:22:13;;;;;;;73.30;58.72;;;;;;;0.12;100.00;101323.94;4971296;28;20047;-82
2023/01/09 09:24:40;;;;;;;67.60;58.33;;;;;;;0.61;100.00;101314.72;4974143;28;20047;-82
2023/01/09 09:27:07;;;;;;;69.50;55.45;;;;;;;0.68;100.00;101317.66;4969242;28;20055;-82
2023/01/09 09:29:35;;;;;;;69.93;58.95;;;;;;;0.79;100.00;101314.16;4969414;28;20866;-82
2023/01/09 09:32:02;;;;;;;73.68;57.40;;;;;;;0.27;100.00;101318.41;4972940;28;20283;-82
2023/01/09 09:34:29;;;;;;;79.00;62.65;;;;;;;0.18;100.00;101318.22;4973012;28;20047;-82
2023/01/09 09:36:55;;;;;;;80.65;67.28;;;;;;;0.18;100.00;101319.97;4968720;28;20054;-82
2023/01/09 09:39:22;;;;;;;90.93;63.15;;;;;;;-0.39;100.00;101316.69;4968367;28;20047;-82
2023/01/09 09:45:11;;;;;;;74.47;60.00;;;;;;;0.28;100.00;101301.81;4971852;28;20627;-82
2023/01/09 09:47:48;;;;;;;83.32;69.65;;;;;;;0.72;100.00;101316.44;4974662;28;20121;-82
2023/01/09 09:50:47;;;;;;;93.72;71.90;;;;;;;0.63;100.00;101317.19;4976279;28;20043;-82
2023/01/09 09:53:21;;;;;;;100.85;73.28;;;;;;;0.93;100.00;101310.38;4971267;28;20059;-82
2023/01/09 09:55:50;;;;;;;109.45;79.22;;;;;;;1.07;100.00;101310.88;4973724;28;20078;-82
2023/01/09 09:58:24;;;;;;;126.82;81.75;;;;;;;1.41;100.00;101304.56;4976011;28;20055;-82
2023/01/09 10:00:54;;;;;;;112.05;75.90;;;;;;;1.04;100.00;101297.22;4973057;28;20086;-82
2023/01/09 10:03:27;;;;;;;78.32;60.33;;;;;;;1.07;100.00;101303.03;4976163;28;20051;-82
2023/01/09 10:05:55;;;;;;;117.78;78.80;;;;;;;0.95;100.00;101288.38;4975848;28;20496;-83
2023/01/09 10:08:34;;;;;;;103.30;77.20;;;;;;;1.28;100.00;101295.16;4972354;28;20050;-82
2023/01/09 10:11:02;;;;;;;126.53;84.93;;;;;;;1.26;100.00;101298.84;4977308;28;20512;-82
2023/01/09 10:16:29;;;;;;;114.13;79.78;;;;;;;1.21;100.00;101301.03;4975690;28;20058;-82
2023/01/09 10:19:06;;;;;;;86.38;69.30;;;;;;;1.18;100.00;101294.28;4978764;28;20047;-83
2023/01/09 10:21:41;;;;;;;108.60;74.38;;;;;;;1.76;100.00;101291.88;4977191;28;20051;-82
2023/01/09 10:24:20;;;;;;;96.60;68.13;;;;;;;1.21;100.00;101287.94;4972521;28;20058;-82
2023/01/09 10:26:50;;;;;;;111.47;80.72;;;;;;;1.36;100.00;101269.16;4977221;28;20146;-82
2023/01/09 10:29:38;;;;;;;103.18;73.10;;;;;;;1.28;100.00;101276.81;4976916;28;20050;-83
2023/01/09 10:32:23;;;;;;;108.00;75.43;;;;;;;1.40;100.00;101277.56;4976235;28;20117;-83
2023/01/09 10:35:01;;;;;;;129.00;84.47;;;;;;;1.42;100.00;101261.72;4975786;28;20043;-82
2023/01/09 10:37:31;;;;;;;122.30;78.60;;;;;;;1.48;100.00;101263.78;4973866;28;20051;-82
2023/01/09 10:40:03;;;;;;;120.60;81.85;;;;;;;1.19;100.00;101267.16;4974873;28;20058;-82
2023/01/09 10:42:35;;;;;;;115.13;80.15;;;;;;;1.75;100.00;101258.75;4967501;28;20054;-82
2023/01/09 10:45:05;;;;;;;;;;;;;;;2.06;100.00;101253.44;4968446;28;20051;-82
2023/01/09 10:47:36;;;;;;;130.88;82.63;;;;;;;2.42;100.00;101258.94;4970867;28;19922;-83
2023/01/09 10:50:18;;;;;;;274.88;123.43;;;;;;;2.18;100.00;101241.84;4977946;28;20050;-83
2023/01/09 10:52:46;;;;;;;;;;;;;;;2.19;100.00;101245.31;4978565;28;20054;-82
2023/01/09 10:55:19;;;;;;;145.95;95.53;;;;;;;1.66;100.00;101243.84;4973301;28;19922;-83
2023/01/09 10:57:49;;;;;;;114.15;83.85;;;;;;;1.47;100.00;101242.03;4975806;28;20039;-82
2023/01/09 11:00:19;;;;;;;160.73;106.50;;;;;;;2.01;100.00;101229.44;4966034;28;20046;-82
2023/01/09 11:02:48;;;;;;;131.73;93.75;;;;;;;1.74;100.00;101240.56;4966992;28;20051;-82
2023/01/09 11:05:19;;;;;;;119.95;80.90;;;;;;;1.58;100.00;101231.44;4969737;28;20043;-82
2023/01/09 11:07:50;;;;;;;116.75;72.95;;;;;;;1.51;100.00;101243.44;4974326;28;20051;-83
2023/01/09 11:10:17;;;;;;;121.50;86.20;;;;;;;1.47;100.00;101244.66;4974278;28;20047;-82
2023/01/09 11:12:44;;;;;;;134.35;94.15;;;;;;;2.03;100.00;101244.06;4968978;28;20110;-82
2023/01/09 11:15:29;;;;;;;120.30;78.80;;;;;;;1.83;100.00;101232.72;4974553;28;20421;-83
2023/01/09 11:18:19;;;;;;;116.80;80.63;;;;;;;2.34;100.00;101229.97;4977487;28;20057;-83
2023/01/09 11:20:46;;;;;;;108.40;81.80;;;;;;;1.86;100.00;101228.19;4975442;28;20074;-82
2023/01/09 11:23:31;;;;;;;100.72;74.93;;;;;;;2.27;100.00;101222.69;4977592;28;20113;-83
2023/01/09 11:26:00;;;;;;;104.43;74.68;;;;;;;2.43;100.00;101229.97;4977351;28;20528;-82
2023/01/09 11:28:28;;;;;;;128.98;87.70;;;;;;;2.19;100.00;101216.47;4969863;28;20051;-83
2023/01/09 11:30:58;;;;;;;112.43;78.53;;;;;;;2.03;100.00;101214.41;4976571;28;20117;-82
2023/01/09 11:33:29;;;;;;;88.53;71.38;;;;;;;2.23;100.00;101200.31;4975560;28;20496;-82
2023/01/09 11:36:00;;;;;;;108.50;85.03;;;;;;;2.18;100.00;101205.16;4973461;28;20105;-82
2023/01/09 11:38:29;;;;;;;92.30;80.15;;;;;;;2.10;100.00;101212.88;4978783;28;20440;-83
2023/01/09 11:41:00;;;;;;;88.65;78.90;;;;;;;2.27;100.00;101188.59;4977687;28;20051;-82
2023/01/09 11:43:31;;;;;;;106.38;85.82;;;;;;;2.35;100.00;101189.69;4975710;28;20416;-82
2023/01/09 11:46:01;;;;;;;101.05;81.43;;;;;;;1.84;100.00;101183.78;4976698;28;20054;-82
2023/01/09 11:48:41;;;;;;;122.18;96.78;;;;;;;1.56;100.00;101167.91;4979821;28;20051;-83
2023/01/09 11:51:20;;;;;;;91.07;81.53;;;;;;;1.60;100.00;101156.22;4981262;28;20531;-82
2023/01/09 11:54:02;;;;;;;93.97;70.72;;;;;;;2.24;100.00;101160.03;4973644;28;20058;-82
2023/01/09 11:56:30;;;;;;;105.88;76.25;;;;;;;2.28;100.00;101166.66;4973834;28;20755;-82
2023/01/09 11:58:58;;;;;;;172.35;123.32;;;;;;;1.87;100.00;101159.91;4970218;28;20429;-82
2023/01/09 12:01:41;;;;;;;106.88;92.22;;;;;;;1.98;100.00;101159.78;4977519;28;20467;-83
2023/01/09 12:04:18;;;;;;;;;;;;;;;1.64;100.00;101162.00;4972209;28;20059;-83
2023/01/09 12:06:59;;;;;;;102.45;81.47;;;;;;;2.02;100.00;101155.09;4970926;28;20277;-83
2023/01/09 12:09:36;;;;;;;102.47;86.15;;;;;;;1.76;100.00;101150.44;4971661;28;20568;-83
2023/01/09 12:12:12;;;;;;;107.78;86.20;;;;;;;1.95;100.00;101146.16;4975839;28;20046;-82
2023/01/09 12:14:53;;;;;;;111.43;91.70;;;;;;;2.29;100.00;101136.84;4970686;28;20046;-82
2023/01/09 12:17:49;;;;;;;207.02;130.55;;;;;;;2.12;100.00;101129.72;4972029;28;20479;-82
2023/01/09 12:20:33;;;;;;;120.07;95.40;;;;;;;2.39;100.00;101123.72;4978847;28;20054;-82
2023/01/09 12:23:15;;;;;;;107.32;86.95;;;;;;;2.73;100.00;101116.13;4977203;28;20562;-82
2023/01/09 12:25:53;;;;;;;131.02;96.70;;;;;;;2.61;100.00;101121.72;4978566;28;20046;-83
2023/01/09 12:28:46;;;;;;;113.25;85.78;;;;;;;2.53;100.00;101119.81;4966722;28;20101;-82
2023/01/09 12:31:28;;;;;;;118.25;90.43;;;;;;;2.21;100.00;101123.63;4979339;28;20050;-82
2023/01/09 12:34:08;;;;;;;131.43;99.55;;;;;;;2.74;100.00;101120.41;4980044;28;20051;-83
2023/01/09 12:36:44;;;;;;;105.38;80.20;;;;;;;2.05;100.00;101111.09;4979979;28;20102;-83
2023/01/09 12:39:22;;;;;;;106.47;80.20;;;;;;;1.94;100.00;101110.44;4979313;28;20086;-82
2023/01/09 12:42:01;;;;;;;116.13;83.97;;;;;;;2.17;100.00;101101.28;4979525;28;20058;-82
2023/01/09 12:44:49;;;;;;;112.75;87.18;;;;;;;2.00;100.00;101104.66;4976970;28;20055;-82